sensor_id;sensor_type;location;lat;lon;timestamp;temperature;humidity
9223;DHT22;7557;51.698;3.942;2023-07-08T00:00:20;21.60;97.10
9223;DHT22;7557;51.698;3.942;2023-07-08T00:02:48;21.60;97.10
9223;DHT22;7557;51.698;3.942;2023-07-08T00:05:17;21.50;97.20
9223;DHT22;7557;51.698;3.942;2023-07-08T00:07:44;21.60;97.30
9223;DHT22;7557;51.698;3.942;2023-07-08T00:10:14;21.60;97.30
9223;DHT22;7557;51.698;3.942;2023-07-08T00:12:42;21.60;97.30
9223;DHT22;7557;51.698;3.942;2023-07-08T00:15:11;21.60;97.30
9223;DHT22;7557;51.698;3.942;2023-07-08T00:17:38;21.40;97.50
9223;DHT22;7557;51.698;3.942;2023-07-08T00:20:17;21.30;97.70
9223;DHT22;7557;51.698;3.942;2023-07-08T00:22:44;21.20;97.90
9223;DHT22;7557;51.698;3.942;2023-07-08T00:25:16;21.10;98.10
9223;DHT22;7557;51.698;3.942;2023-07-08T00:27:45;21.10;98.20
9223;DHT22;7557;51.698;3.942;2023-07-08T00:30:22;21.00;98.40
9223;DHT22;7557;51.698;3.942;2023-07-08T00:32:49;20.90;98.60
9223;DHT22;7557;51.698;3.942;2023-07-08T00:35:24;20.90;98.60
9223;DHT22;7557;51.698;3.942;2023-07-08T00:37:53;20.90;98.70
9223;DHT22;7557;51.698;3.942;2023-07-08T00:40:27;20.80;98.70
9223;DHT22;7557;51.698;3.942;2023-07-08T00:42:55;20.80;98.80
9223;DHT22;7557;51.698;3.942;2023-07-08T00:48:33;20.80;98.70
9223;DHT22;7557;51.698;3.942;2023-07-08T00:51:01;20.80;98.70
9223;DHT22;7557;51.698;3.942;2023-07-08T00:53:31;20.80;98.80
9223;DHT22;7557;51.698;3.942;2023-07-08T00:56:02;20.80;98.80
9223;DHT22;7557;51.698;3.942;2023-07-08T00:58:33;20.70;98.80
9223;DHT22;7557;51.698;3.942;2023-07-08T01:01:04;20.70;98.90
9223;DHT22;7557;51.698;3.942;2023-07-08T01:03:36;20.70;98.90
9223;DHT22;7557;51.698;3.942;2023-07-08T01:06:07;20.60;99.20
9223;DHT22;7557;51.698;3.942;2023-07-08T01:08:34;20.60;98.80
9223;DHT22;7557;51.698;3.942;2023-07-08T01:11:04;20.60;98.80
9223;DHT22;7557;51.698;3.942;2023-07-08T01:13:35;20.60;98.80
9223;DHT22;7557;51.698;3.942;2023-07-08T01:16:06;20.60;98.70
9223;DHT22;7557;51.698;3.942;2023-07-08T01:18:34;20.60;98.70
9223;DHT22;7557;51.698;3.942;2023-07-08T01:21:04;20.60;98.80
9223;DHT22;7557;51.698;3.942;2023-07-08T01:23:34;20.60;98.70
9223;DHT22;7557;51.698;3.942;2023-07-08T01:26:03;20.60;98.70
9223;DHT22;7557;51.698;3.942;2023-07-08T01:28:31;20.60;98.80
9223;DHT22;7557;51.698;3.942;2023-07-08T01:30:59;20.50;98.80
9223;DHT22;7557;51.698;3.942;2023-07-08T01:33:26;20.50;98.90
9223;DHT22;7557;51.698;3.942;2023-07-08T01:35:54;20.40;99.00
9223;DHT22;7557;51.698;3.942;2023-07-08T01:38:24;20.40;98.90
9223;DHT22;7557;51.698;3.942;2023-07-08T01:40:56;20.50;98.90
9223;DHT22;7557;51.698;3.942;2023-07-08T01:43:24;20.50;98.80
9223;DHT22;7557;51.698;3.942;2023-07-08T01:45:52;20.50;98.70
9223;DHT22;7557;51.698;3.942;2023-07-08T01:48:22;20.50;98.80
9223;DHT22;7557;51.698;3.942;2023-07-08T01:50:54;20.50;98.80
9223;DHT22;7557;51.698;3.942;2023-07-08T01:53:29;20.50;98.80
9223;DHT22;7557;51.698;3.942;2023-07-08T01:55:58;20.40;99.00
9223;DHT22;7557;51.698;3.942;2023-07-08T01:58:25;20.30;99.20
9223;DHT22;7557;51.698;3.942;2023-07-08T02:00:52;20.30;99.30
9223;DHT22;7557;51.698;3.942;2023-07-08T02:03:20;20.30;99.40
9223;DHT22;7557;51.698;3.942;2023-07-08T02:05:47;20.20;99.40
9223;DHT22;7557;51.698;3.942;2023-07-08T02:08:15;20.30;99.40
9223;DHT22;7557;51.698;3.942;2023-07-08T02:10:43;20.20;99.40
9223;DHT22;7557;51.698;3.942;2023-07-08T02:13:12;20.10;99.50
9223;DHT22;7557;51.698;3.942;2023-07-08T02:15:39;20.10;99.60
9223;DHT22;7557;51.698;3.942;2023-07-08T02:18:07;20.10;99.70
9223;DHT22;7557;51.698;3.942;2023-07-08T02:20:34;20.20;99.70
9223;DHT22;7557;51.698;3.942;2023-07-08T02:23:01;20.20;99.90
9223;DHT22;7557;51.698;3.942;2023-07-08T02:25:28;20.20;99.60
9223;DHT22;7557;51.698;3.942;2023-07-08T02:27:56;20.20;99.60
9223;DHT22;7557;51.698;3.942;2023-07-08T02:30:26;20.10;99.70
9223;DHT22;7557;51.698;3.942;2023-07-08T02:32:53;20.10;99.80
9223;DHT22;7557;51.698;3.942;2023-07-08T02:35:24;20.10;99.80
9223;DHT22;7557;51.698;3.942;2023-07-08T02:37:52;20.10;99.70
9223;DHT22;7557;51.698;3.942;2023-07-08T02:40:20;20.20;99.70
9223;DHT22;7557;51.698;3.942;2023-07-08T02:42:47;20.20;99.70
9223;DHT22;7557;51.698;3.942;2023-07-08T02:45:17;20.20;99.60
9223;DHT22;7557;51.698;3.942;2023-07-08T02:47:46;20.30;99.50
9223;DHT22;7557;51.698;3.942;2023-07-08T02:50:13;20.40;99.40
9223;DHT22;7557;51.698;3.942;2023-07-08T02:52:40;20.40;99.40
9223;DHT22;7557;51.698;3.942;2023-07-08T02:55:08;20.40;99.40
9223;DHT22;7557;51.698;3.942;2023-07-08T02:57:35;20.40;99.40
9223;DHT22;7557;51.698;3.942;2023-07-08T03:00:03;20.40;99.30
9223;DHT22;7557;51.698;3.942;2023-07-08T03:02:32;20.50;99.20
9223;DHT22;7557;51.698;3.942;2023-07-08T03:05:01;20.50;99.10
9223;DHT22;7557;51.698;3.942;2023-07-08T03:07:31;20.50;99.20
9223;DHT22;7557;51.698;3.942;2023-07-08T03:09:58;20.30;99.40
9223;DHT22;7557;51.698;3.942;2023-07-08T03:12:25;20.10;99.70
9223;DHT22;7557;51.698;3.942;2023-07-08T03:14:52;20.00;99.70
9223;DHT22;7557;51.698;3.942;2023-07-08T03:17:20;20.10;99.70
9223;DHT22;7557;51.698;3.942;2023-07-08T03:19:47;20.10;99.70
9223;DHT22;7557;51.698;3.942;2023-07-08T03:22:16;20.10;99.70
9223;DHT22;7557;51.698;3.942;2023-07-08T03:24:44;20.10;99.70
9223;DHT22;7557;51.698;3.942;2023-07-08T03:27:13;20.10;99.80
9223;DHT22;7557;51.698;3.942;2023-07-08T03:29:41;20.10;99.80
9223;DHT22;7557;51.698;3.942;2023-07-08T03:32:10;20.10;99.70
9223;DHT22;7557;51.698;3.942;2023-07-08T03:34:38;20.00;99.90
9223;DHT22;7557;51.698;3.942;2023-07-08T03:37:05;19.90;99.90
9223;DHT22;7557;51.698;3.942;2023-07-08T03:39:34;19.80;99.90
9223;DHT22;7557;51.698;3.942;2023-07-08T03:42:02;19.70;99.90
9223;DHT22;7557;51.698;3.942;2023-07-08T03:44:30;19.60;99.90
9223;DHT22;7557;51.698;3.942;2023-07-08T03:46:58;19.60;99.90
9223;DHT22;7557;51.698;3.942;2023-07-08T03:49:25;19.50;99.90
9223;DHT22;7557;51.698;3.942;2023-07-08T03:51:53;19.40;99.90
9223;DHT22;7557;51.698;3.942;2023-07-08T03:54:22;19.30;99.90
9223;DHT22;7557;51.698;3.942;2023-07-08T03:56:51;19.30;99.90
9223;DHT22;7557;51.698;3.942;2023-07-08T03:59:19;19.40;99.90
9223;DHT22;7557;51.698;3.942;2023-07-08T04:01:46;19.40;99.90
9223;DHT22;7557;51.698;3.942;2023-07-08T04:04:15;19.40;99.90
9223;DHT22;7557;51.698;3.942;2023-07-08T04:06:42;19.40;99.90
9223;DHT22;7557;51.698;3.942;2023-07-08T04:09:11;19.40;99.90
9223;DHT22;7557;51.698;3.942;2023-07-08T04:11:38;19.40;99.90
9223;DHT22;7557;51.698;3.942;2023-07-08T04:14:08;19.40;99.90
9223;DHT22;7557;51.698;3.942;2023-07-08T04:16:44;19.40;99.90
9223;DHT22;7557;51.698;3.942;2023-07-08T04:19:12;19.50;99.90
9223;DHT22;7557;51.698;3.942;2023-07-08T04:21:41;19.60;99.90
9223;DHT22;7557;51.698;3.942;2023-07-08T04:24:09;19.60;99.90
9223;DHT22;7557;51.698;3.942;2023-07-08T04:26:37;19.70;99.90
9223;DHT22;7557;51.698;3.942;2023-07-08T04:29:07;19.70;99.90
9223;DHT22;7557;51.698;3.942;2023-07-08T04:31:36;19.70;99.90
9223;DHT22;7557;51.698;3.942;2023-07-08T04:34:03;19.70;99.90
9223;DHT22;7557;51.698;3.942;2023-07-08T04:36:32;19.70;99.90
9223;DHT22;7557;51.698;3.942;2023-07-08T04:38:59;19.70;99.90
9223;DHT22;7557;51.698;3.942;2023-07-08T04:41:27;19.80;99.90
9223;DHT22;7557;51.698;3.942;2023-07-08T04:43:54;19.80;99.90
9223;DHT22;7557;51.698;3.942;2023-07-08T04:46:29;19.80;99.90
9223;DHT22;7557;51.698;3.942;2023-07-08T04:49:00;19.80;99.90
9223;DHT22;7557;51.698;3.942;2023-07-08T04:51:29;19.80;99.90
9223;DHT22;7557;51.698;3.942;2023-07-08T04:53:56;19.80;99.90
9223;DHT22;7557;51.698;3.942;2023-07-08T04:56:26;19.80;99.90
9223;DHT22;7557;51.698;3.942;2023-07-08T04:59:01;20.00;99.90
9223;DHT22;7557;51.698;3.942;2023-07-08T05:01:30;20.00;99.90
9223;DHT22;7557;51.698;3.942;2023-07-08T05:03:57;20.00;99.90
9223;DHT22;7557;51.698;3.942;2023-07-08T05:06:25;20.10;99.90
9223;DHT22;7557;51.698;3.942;2023-07-08T05:08:52;20.10;99.90
9223;DHT22;7557;51.698;3.942;2023-07-08T05:11:20;20.20;99.90
9223;DHT22;7557;51.698;3.942;2023-07-08T05:13:47;20.30;99.90
9223;DHT22;7557;51.698;3.942;2023-07-08T05:16:15;20.30;99.90
9223;DHT22;7557;51.698;3.942;2023-07-08T05:18:44;20.50;99.90
9223;DHT22;7557;51.698;3.942;2023-07-08T05:21:11;20.60;99.90
9223;DHT22;7557;51.698;3.942;2023-07-08T05:23:39;20.80;99.90
9223;DHT22;7557;51.698;3.942;2023-07-08T05:26:07;20.90;99.90
9223;DHT22;7557;51.698;3.942;2023-07-08T05:28:36;21.00;99.90
9223;DHT22;7557;51.698;3.942;2023-07-08T05:31:03;21.20;99.90
9223;DHT22;7557;51.698;3.942;2023-07-08T05:33:31;21.40;99.90
9223;DHT22;7557;51.698;3.942;2023-07-08T05:36:00;21.60;99.90
9223;DHT22;7557;51.698;3.942;2023-07-08T05:38:28;21.80;99.90
9223;DHT22;7557;51.698;3.942;2023-07-08T05:40:58;21.90;99.90
9223;DHT22;7557;51.698;3.942;2023-07-08T05:43:26;22.00;99.90
9223;DHT22;7557;51.698;3.942;2023-07-08T05:45:58;22.10;99.90
9223;DHT22;7557;51.698;3.942;2023-07-08T05:48:25;22.10;99.90
9223;DHT22;7557;51.698;3.942;2023-07-08T05:50:53;22.10;99.90
9223;DHT22;7557;51.698;3.942;2023-07-08T05:53:22;22.20;99.90
9223;DHT22;7557;51.698;3.942;2023-07-08T05:55:50;22.20;99.90
9223;DHT22;7557;51.698;3.942;2023-07-08T05:58:18;22.40;99.90
9223;DHT22;7557;51.698;3.942;2023-07-08T06:00:45;22.50;99.90
9223;DHT22;7557;51.698;3.942;2023-07-08T06:03:13;22.60;99.90
9223;DHT22;7557;51.698;3.942;2023-07-08T06:05:40;22.60;99.80
9223;DHT22;7557;51.698;3.942;2023-07-08T06:08:09;22.60;99.70
9223;DHT22;7557;51.698;3.942;2023-07-08T06:10:43;22.70;99.50
9223;DHT22;7557;51.698;3.942;2023-07-08T06:13:10;22.70;99.40
9223;DHT22;7557;51.698;3.942;2023-07-08T06:15:38;22.80;99.20
9223;DHT22;7557;51.698;3.942;2023-07-08T06:18:05;22.90;99.50
9223;DHT22;7557;51.698;3.942;2023-07-08T06:20:33;23.20;99.50
9223;DHT22;7557;51.698;3.942;2023-07-08T06:23:01;23.50;99.20
9223;DHT22;7557;51.698;3.942;2023-07-08T06:25:28;23.70;99.10
9223;DHT22;7557;51.698;3.942;2023-07-08T06:27:57;23.90;98.90
9223;DHT22;7557;51.698;3.942;2023-07-08T06:30:25;24.10;98.50
9223;DHT22;7557;51.698;3.942;2023-07-08T06:32:52;24.20;98.10
9223;DHT22;7557;51.698;3.942;2023-07-08T06:35:20;24.30;97.80
9223;DHT22;7557;51.698;3.942;2023-07-08T06:37:47;24.20;97.60
9223;DHT22;7557;51.698;3.942;2023-07-08T06:40:15;24.20;97.70
9223;DHT22;7557;51.698;3.942;2023-07-08T06:42:43;24.10;97.70
9223;DHT22;7557;51.698;3.942;2023-07-08T06:45:12;24.20;97.60
9223;DHT22;7557;51.698;3.942;2023-07-08T06:47:39;24.30;97.80
9223;DHT22;7557;51.698;3.942;2023-07-08T06:50:08;24.50;97.80
9223;DHT22;7557;51.698;3.942;2023-07-08T06:52:35;24.80;97.90
9223;DHT22;7557;51.698;3.942;2023-07-08T06:55:05;25.00;97.30
9223;DHT22;7557;51.698;3.942;2023-07-08T06:57:33;24.90;96.90
9223;DHT22;7557;51.698;3.942;2023-07-08T07:00:00;24.80;97.00
9223;DHT22;7557;51.698;3.942;2023-07-08T07:02:30;24.90;97.00
9223;DHT22;7557;51.698;3.942;2023-07-08T07:04:57;25.00;97.10
9223;DHT22;7557;51.698;3.942;2023-07-08T07:07:25;25.10;97.30
9223;DHT22;7557;51.698;3.942;2023-07-08T07:09:53;25.20;97.00
9223;DHT22;7557;51.698;3.942;2023-07-08T07:12:21;25.30;96.90
9223;DHT22;7557;51.698;3.942;2023-07-08T07:14:48;25.30;96.50
9223;DHT22;7557;51.698;3.942;2023-07-08T07:17:18;25.30;96.70
9223;DHT22;7557;51.698;3.942;2023-07-08T07:19:47;25.50;96.90
9223;DHT22;7557;51.698;3.942;2023-07-08T07:22:15;25.80;96.50
9223;DHT22;7557;51.698;3.942;2023-07-08T07:24:43;26.10;96.30
9223;DHT22;7557;51.698;3.942;2023-07-08T07:27:10;26.30;96.30
9223;DHT22;7557;51.698;3.942;2023-07-08T07:29:42;26.40;96.30
9223;DHT22;7557;51.698;3.942;2023-07-08T07:32:10;26.50;96.00
9223;DHT22;7557;51.698;3.942;2023-07-08T07:34:37;26.60;95.60
9223;DHT22;7557;51.698;3.942;2023-07-08T07:37:08;26.70;95.70
9223;DHT22;7557;51.698;3.942;2023-07-08T07:39:37;26.70;95.90
9223;DHT22;7557;51.698;3.942;2023-07-08T07:42:05;26.90;96.30
9223;DHT22;7557;51.698;3.942;2023-07-08T07:44:33;27.30;95.80
9223;DHT22;7557;51.698;3.942;2023-07-08T07:47:01;27.50;95.00
9223;DHT22;7557;51.698;3.942;2023-07-08T07:49:29;27.60;95.10
9223;DHT22;7557;51.698;3.942;2023-07-08T07:51:56;27.80;95.20
9223;DHT22;7557;51.698;3.942;2023-07-08T07:54:25;28.00;94.70
9223;DHT22;7557;51.698;3.942;2023-07-08T07:56:53;28.20;94.70
9223;DHT22;7557;51.698;3.942;2023-07-08T07:59:21;28.20;94.10
9223;DHT22;7557;51.698;3.942;2023-07-08T08:01:49;28.20;93.90
9223;DHT22;7557;51.698;3.942;2023-07-08T08:04:16;28.00;94.00
9223;DHT22;7557;51.698;3.942;2023-07-08T08:06:43;27.80;94.10
9223;DHT22;7557;51.698;3.942;2023-07-08T08:09:10;27.60;94.10
9223;DHT22;7557;51.698;3.942;2023-07-08T08:11:39;27.40;94.20
9223;DHT22;7557;51.698;3.942;2023-07-08T08:14:07;27.30;94.10
9223;DHT22;7557;51.698;3.942;2023-07-08T08:16:34;27.30;94.20
9223;DHT22;7557;51.698;3.942;2023-07-08T08:19:01;27.40;94.30
9223;DHT22;7557;51.698;3.942;2023-07-08T08:21:29;27.50;94.20
9223;DHT22;7557;51.698;3.942;2023-07-08T08:23:56;27.60;94.00
9223;DHT22;7557;51.698;3.942;2023-07-08T08:26:26;27.80;93.80
9223;DHT22;7557;51.698;3.942;2023-07-08T08:28:55;28.00;93.80
9223;DHT22;7557;51.698;3.942;2023-07-08T08:31:24;28.20;92.80
9223;DHT22;7557;51.698;3.942;2023-07-08T08:33:51;28.40;93.30
9223;DHT22;7557;51.698;3.942;2023-07-08T08:36:19;28.50;92.50
9223;DHT22;7557;51.698;3.942;2023-07-08T08:38:47;28.50;92.40
9223;DHT22;7557;51.698;3.942;2023-07-08T08:41:16;28.50;91.90
9223;DHT22;7557;51.698;3.942;2023-07-08T08:43:45;28.40;92.40
9223;DHT22;7557;51.698;3.942;2023-07-08T08:46:22;28.80;92.00
9223;DHT22;7557;51.698;3.942;2023-07-08T08:48:55;29.00;91.10
9223;DHT22;7557;51.698;3.942;2023-07-08T08:51:25;29.00;91.80
9223;DHT22;7557;51.698;3.942;2023-07-08T08:53:56;29.20;91.70
9223;DHT22;7557;51.698;3.942;2023-07-08T08:56:27;29.50;91.70
9223;DHT22;7557;51.698;3.942;2023-07-08T08:59:00;29.70;91.40
9223;DHT22;7557;51.698;3.942;2023-07-08T09:01:31;29.80;90.80
9223;DHT22;7557;51.698;3.942;2023-07-08T09:04:02;30.00;90.70
9223;DHT22;7557;51.698;3.942;2023-07-08T09:06:32;30.10;90.80
9223;DHT22;7557;51.698;3.942;2023-07-08T09:09:03;30.20;90.70
9223;DHT22;7557;51.698;3.942;2023-07-08T09:11:40;30.30;90.40
9223;DHT22;7557;51.698;3.942;2023-07-08T09:14:15;30.20;90.40
9223;DHT22;7557;51.698;3.942;2023-07-08T09:16:49;30.40;90.20
9223;DHT22;7557;51.698;3.942;2023-07-08T09:19:24;30.40;89.70
9223;DHT22;7557;51.698;3.942;2023-07-08T09:21:57;30.40;90.20
9223;DHT22;7557;51.698;3.942;2023-07-08T09:24:31;30.50;90.30
9223;DHT22;7557;51.698;3.942;2023-07-08T09:27:01;30.70;90.10
9223;DHT22;7557;51.698;3.942;2023-07-08T09:29:29;31.00;89.60
9223;DHT22;7557;51.698;3.942;2023-07-08T09:31:58;31.10;88.20
9223;DHT22;7557;51.698;3.942;2023-07-08T09:34:37;31.00;88.90
9223;DHT22;7557;51.698;3.942;2023-07-08T09:37:23;31.10;89.10
9223;DHT22;7557;51.698;3.942;2023-07-08T09:39:52;31.30;89.50
9223;DHT22;7557;51.698;3.942;2023-07-08T09:42:21;31.60;88.70
9223;DHT22;7557;51.698;3.942;2023-07-08T09:44:49;32.00;88.00
9223;DHT22;7557;51.698;3.942;2023-07-08T09:47:24;32.10;86.00
9223;DHT22;7557;51.698;3.942;2023-07-08T09:49:54;31.90;86.50
9223;DHT22;7557;51.698;3.942;2023-07-08T09:52:21;31.80;85.40
9223;DHT22;7557;51.698;3.942;2023-07-08T09:54:49;31.80;86.20
9223;DHT22;7557;51.698;3.942;2023-07-08T09:57:28;32.00;85.20
9223;DHT22;7557;51.698;3.942;2023-07-08T09:59:58;32.10;84.00
9223;DHT22;7557;51.698;3.942;2023-07-08T10:02:32;32.30;84.00
9223;DHT22;7557;51.698;3.942;2023-07-08T10:05:01;32.60;83.30
9223;DHT22;7557;51.698;3.942;2023-07-08T10:07:30;32.80;82.40
9223;DHT22;7557;51.698;3.942;2023-07-08T10:10:01;32.80;82.30
9223;DHT22;7557;51.698;3.942;2023-07-08T10:12:30;32.70;80.90
9223;DHT22;7557;51.698;3.942;2023-07-08T10:15:01;32.90;81.00
9223;DHT22;7557;51.698;3.942;2023-07-08T10:17:31;32.90;80.90
9223;DHT22;7557;51.698;3.942;2023-07-08T10:19:59;32.80;79.50
9223;DHT22;7557;51.698;3.942;2023-07-08T10:22:36;32.80;79.50
9223;DHT22;7557;51.698;3.942;2023-07-08T10:25:19;32.90;78.20
9223;DHT22;7557;51.698;3.942;2023-07-08T10:27:53;33.00;78.00
9223;DHT22;7557;51.698;3.942;2023-07-08T10:30:25;33.00;77.30
9223;DHT22;7557;51.698;3.942;2023-07-08T10:33:11;33.10;77.20
9223;DHT22;7557;51.698;3.942;2023-07-08T10:35:48;33.20;76.10
9223;DHT22;7557;51.698;3.942;2023-07-08T10:38:33;33.30;75.00
9223;DHT22;7557;51.698;3.942;2023-07-08T10:41:10;33.40;72.90
9223;DHT22;7557;51.698;3.942;2023-07-08T10:43:51;33.30;69.60
9223;DHT22;7557;51.698;3.942;2023-07-08T10:46:28;33.20;70.70
9223;DHT22;7557;51.698;3.942;2023-07-08T10:49:29;33.20;71.00
9223;DHT22;7557;51.698;3.942;2023-07-08T10:52:13;33.20;70.40
9223;DHT22;7557;51.698;3.942;2023-07-08T10:55:02;33.20;69.70
9223;DHT22;7557;51.698;3.942;2023-07-08T10:57:51;33.30;70.70
9223;DHT22;7557;51.698;3.942;2023-07-08T11:00:28;33.40;71.80
9223;DHT22;7557;51.698;3.942;2023-07-08T11:03:20;33.40;71.00
9223;DHT22;7557;51.698;3.942;2023-07-08T11:05:59;33.40;71.70
9223;DHT22;7557;51.698;3.942;2023-07-08T11:08:30;33.40;71.50
9223;DHT22;7557;51.698;3.942;2023-07-08T11:11:03;33.40;70.20
9223;DHT22;7557;51.698;3.942;2023-07-08T11:13:36;33.30;69.40
9223;DHT22;7557;51.698;3.942;2023-07-08T11:16:14;33.20;71.60
9223;DHT22;7557;51.698;3.942;2023-07-08T11:18:50;33.20;71.40
9223;DHT22;7557;51.698;3.942;2023-07-08T11:21:22;33.20;68.30
9223;DHT22;7557;51.698;3.942;2023-07-08T11:23:56;33.20;69.00
9223;DHT22;7557;51.698;3.942;2023-07-08T11:26:27;33.20;68.10
9223;DHT22;7557;51.698;3.942;2023-07-08T11:28:58;33.30;71.50
9223;DHT22;7557;51.698;3.942;2023-07-08T11:31:27;33.40;70.70
9223;DHT22;7557;51.698;3.942;2023-07-08T11:33:57;33.30;71.90
9223;DHT22;7557;51.698;3.942;2023-07-08T11:36:28;33.40;72.90
9223;DHT22;7557;51.698;3.942;2023-07-08T11:38:57;33.50;72.80
9223;DHT22;7557;51.698;3.942;2023-07-08T11:41:30;33.60;71.90
9223;DHT22;7557;51.698;3.942;2023-07-08T11:43:59;33.60;71.80
9223;DHT22;7557;51.698;3.942;2023-07-08T11:46:31;33.60;71.90
9223;DHT22;7557;51.698;3.942;2023-07-08T11:49:02;33.70;72.50
9223;DHT22;7557;51.698;3.942;2023-07-08T11:51:34;33.70;69.30
9223;DHT22;7557;51.698;3.942;2023-07-08T11:54:12;33.70;69.10
9223;DHT22;7557;51.698;3.942;2023-07-08T11:56:49;33.70;68.00
9223;DHT22;7557;51.698;3.942;2023-07-08T11:59:25;33.80;68.20
9223;DHT22;7557;51.698;3.942;2023-07-08T12:02:01;33.90;68.70
9223;DHT22;7557;51.698;3.942;2023-07-08T12:04:30;34.00;68.60
9223;DHT22;7557;51.698;3.942;2023-07-08T12:07:11;34.00;69.50
9223;DHT22;7557;51.698;3.942;2023-07-08T12:09:46;34.00;70.00
9223;DHT22;7557;51.698;3.942;2023-07-08T12:12:25;34.10;69.70
9223;DHT22;7557;51.698;3.942;2023-07-08T12:14:58;34.20;70.40
9223;DHT22;7557;51.698;3.942;2023-07-08T12:17:27;34.20;70.90
9223;DHT22;7557;51.698;3.942;2023-07-08T12:19:58;34.30;71.80
9223;DHT22;7557;51.698;3.942;2023-07-08T12:22:32;34.30;71.30
9223;DHT22;7557;51.698;3.942;2023-07-08T12:25:00;34.00;71.90
9223;DHT22;7557;51.698;3.942;2023-07-08T12:27:31;33.90;71.30
9223;DHT22;7557;51.698;3.942;2023-07-08T12:29:59;33.90;71.80
9223;DHT22;7557;51.698;3.942;2023-07-08T12:32:26;33.90;72.30
9223;DHT22;7557;51.698;3.942;2023-07-08T12:34:54;34.00;72.40
9223;DHT22;7557;51.698;3.942;2023-07-08T12:37:22;34.10;72.70
9223;DHT22;7557;51.698;3.942;2023-07-08T12:39:56;34.30;70.70
9223;DHT22;7557;51.698;3.942;2023-07-08T12:42:25;34.30;71.10
9223;DHT22;7557;51.698;3.942;2023-07-08T12:44:53;34.40;72.30
9223;DHT22;7557;51.698;3.942;2023-07-08T12:47:20;34.40;72.00
9223;DHT22;7557;51.698;3.942;2023-07-08T12:49:48;34.40;71.50
9223;DHT22;7557;51.698;3.942;2023-07-08T12:52:20;34.50;71.10
9223;DHT22;7557;51.698;3.942;2023-07-08T12:54:48;34.60;70.50
9223;DHT22;7557;51.698;3.942;2023-07-08T12:57:18;34.60;70.30
9223;DHT22;7557;51.698;3.942;2023-07-08T12:59:46;34.60;70.30
9223;DHT22;7557;51.698;3.942;2023-07-08T13:02:16;34.60;69.70
9223;DHT22;7557;51.698;3.942;2023-07-08T13:04:46;34.50;70.00
9223;DHT22;7557;51.698;3.942;2023-07-08T13:07:23;34.50;69.90
9223;DHT22;7557;51.698;3.942;2023-07-08T13:09:51;34.30;68.20
9223;DHT22;7557;51.698;3.942;2023-07-08T13:12:21;34.00;71.40
9223;DHT22;7557;51.698;3.942;2023-07-08T13:14:52;34.00;71.50
9223;DHT22;7557;51.698;3.942;2023-07-08T13:17:20;33.90;71.20
9223;DHT22;7557;51.698;3.942;2023-07-08T13:19:48;33.90;75.10
9223;DHT22;7557;51.698;3.942;2023-07-08T13:22:18;33.80;76.80
9223;DHT22;7557;51.698;3.942;2023-07-08T13:24:46;33.70;75.70
9223;DHT22;7557;51.698;3.942;2023-07-08T13:27:24;33.50;79.30
9223;DHT22;7557;51.698;3.942;2023-07-08T13:29:52;33.40;84.70
9223;DHT22;7557;51.698;3.942;2023-07-08T13:32:20;33.10;87.40
9223;DHT22;7557;51.698;3.942;2023-07-08T13:34:56;32.80;87.60
9223;DHT22;7557;51.698;3.942;2023-07-08T13:37:23;32.60;88.40
9223;DHT22;7557;51.698;3.942;2023-07-08T13:39:53;32.40;87.70
9223;DHT22;7557;51.698;3.942;2023-07-08T13:42:22;32.30;88.80
9223;DHT22;7557;51.698;3.942;2023-07-08T13:44:50;32.30;88.80
9223;DHT22;7557;51.698;3.942;2023-07-08T13:47:21;32.10;87.90
9223;DHT22;7557;51.698;3.942;2023-07-08T13:49:54;32.10;90.10
9223;DHT22;7557;51.698;3.942;2023-07-08T13:52:23;32.00;90.90
9223;DHT22;7557;51.698;3.942;2023-07-08T13:54:54;31.90;89.80
9223;DHT22;7557;51.698;3.942;2023-07-08T13:57:28;31.80;89.60
9223;DHT22;7557;51.698;3.942;2023-07-08T13:59:56;31.80;90.60
9223;DHT22;7557;51.698;3.942;2023-07-08T14:02:28;31.70;89.10
9223;DHT22;7557;51.698;3.942;2023-07-08T14:04:58;31.50;88.70
9223;DHT22;7557;51.698;3.942;2023-07-08T14:07:28;31.30;90.10
9223;DHT22;7557;51.698;3.942;2023-07-08T14:09:56;31.30;91.20
9223;DHT22;7557;51.698;3.942;2023-07-08T14:12:28;31.30;91.50
9223;DHT22;7557;51.698;3.942;2023-07-08T14:14:55;31.20;91.70
9223;DHT22;7557;51.698;3.942;2023-07-08T14:17:25;31.10;91.80
9223;DHT22;7557;51.698;3.942;2023-07-08T14:19:53;31.00;91.70
9223;DHT22;7557;51.698;3.942;2023-07-08T14:22:26;31.00;91.60
9223;DHT22;7557;51.698;3.942;2023-07-08T14:24:54;30.80;91.70
9223;DHT22;7557;51.698;3.942;2023-07-08T14:27:22;30.70;91.90
9223;DHT22;7557;51.698;3.942;2023-07-08T14:29:51;30.70;93.00
9223;DHT22;7557;51.698;3.942;2023-07-08T14:32:21;30.70;92.40
9223;DHT22;7557;51.698;3.942;2023-07-08T14:34:51;30.60;92.10
9223;DHT22;7557;51.698;3.942;2023-07-08T14:37:20;30.50;91.80
9223;DHT22;7557;51.698;3.942;2023-07-08T14:39:48;30.50;91.60
9223;DHT22;7557;51.698;3.942;2023-07-08T14:42:18;30.40;91.80
9223;DHT22;7557;51.698;3.942;2023-07-08T14:44:47;30.30;91.90
9223;DHT22;7557;51.698;3.942;2023-07-08T14:47:18;30.20;92.10
9223;DHT22;7557;51.698;3.942;2023-07-08T14:49:47;30.10;92.40
9223;DHT22;7557;51.698;3.942;2023-07-08T14:52:14;30.00;92.20
9223;DHT22;7557;51.698;3.942;2023-07-08T14:54:42;30.00;92.20
9223;DHT22;7557;51.698;3.942;2023-07-08T14:57:11;30.00;92.30
9223;DHT22;7557;51.698;3.942;2023-07-08T14:59:41;30.00;92.20
9223;DHT22;7557;51.698;3.942;2023-07-08T15:02:20;29.90;92.30
9223;DHT22;7557;51.698;3.942;2023-07-08T15:04:48;29.80;91.60
9223;DHT22;7557;51.698;3.942;2023-07-08T15:07:19;29.80;91.90
9223;DHT22;7557;51.698;3.942;2023-07-08T15:09:46;29.70;91.70
9223;DHT22;7557;51.698;3.942;2023-07-08T15:12:14;29.60;91.50
9223;DHT22;7557;51.698;3.942;2023-07-08T15:14:41;29.50;91.70
9223;DHT22;7557;51.698;3.942;2023-07-08T15:17:14;29.50;91.90
9223;DHT22;7557;51.698;3.942;2023-07-08T15:19:45;29.60;91.70
9223;DHT22;7557;51.698;3.942;2023-07-08T15:22:12;29.50;91.90
9223;DHT22;7557;51.698;3.942;2023-07-08T15:24:40;29.50;92.30
9223;DHT22;7557;51.698;3.942;2023-07-08T15:27:09;29.50;92.50
9223;DHT22;7557;51.698;3.942;2023-07-08T15:29:38;29.60;92.10
9223;DHT22;7557;51.698;3.942;2023-07-08T15:32:11;29.50;91.60
9223;DHT22;7557;51.698;3.942;2023-07-08T15:34:39;29.40;91.50
9223;DHT22;7557;51.698;3.942;2023-07-08T15:37:08;29.30;91.00
9223;DHT22;7557;51.698;3.942;2023-07-08T15:39:35;29.20;91.10
9223;DHT22;7557;51.698;3.942;2023-07-08T15:42:04;29.20;91.20
9223;DHT22;7557;51.698;3.942;2023-07-08T15:44:31;29.20;91.80
9223;DHT22;7557;51.698;3.942;2023-07-08T15:47:00;29.30;92.20
9223;DHT22;7557;51.698;3.942;2023-07-08T15:49:28;29.40;91.50
9223;DHT22;7557;51.698;3.942;2023-07-08T15:51:56;29.50;91.40
9223;DHT22;7557;51.698;3.942;2023-07-08T15:54:25;29.60;91.50
9223;DHT22;7557;51.698;3.942;2023-07-08T15:56:53;29.70;91.20
9223;DHT22;7557;51.698;3.942;2023-07-08T15:59:23;29.70;91.10
9223;DHT22;7557;51.698;3.942;2023-07-08T16:01:51;29.70;90.90
9223;DHT22;7557;51.698;3.942;2023-07-08T16:04:23;29.70;91.30
9223;DHT22;7557;51.698;3.942;2023-07-08T16:06:51;29.70;91.20
9223;DHT22;7557;51.698;3.942;2023-07-08T16:09:18;29.80;91.50
9223;DHT22;7557;51.698;3.942;2023-07-08T16:11:47;29.90;91.50
9223;DHT22;7557;51.698;3.942;2023-07-08T16:14:15;30.00;91.20
9223;DHT22;7557;51.698;3.942;2023-07-08T16:16:44;30.10;91.00
9223;DHT22;7557;51.698;3.942;2023-07-08T16:19:12;30.10;90.90
9223;DHT22;7557;51.698;3.942;2023-07-08T16:21:40;30.10;90.70